Arklow Mill — EIJD9 — position and weather

sailwx.info

Track history (hours):
 
Tides and Currents Weather Stations Pressure Air Temp Water Temp Dewpoint Dewpoint Depression Visibility Wind Speed Wind Dir Waves Ship Positions

Arklow Mill

Last reported at 2015-Apr-27 20:13 UTC. Time now 2015-Apr-28 02:09 UTC.
Position N 36°36' W 008°38'.

Length 137 m; draft 8.4 m.

Type: Ship. MMSI: 250002022.

Date/timePositionNaut miles runAvg speedWind from/ knotsBaromVisibWave heightAir tempDewpointWater temp
2015-Apr-27 20:13N 36°36' W 008°38'811.9
2015-Apr-27 19:32N 36°34' W 008°29'2512.0
2015-Apr-27 17:29N 36°26' W 007°59'12611.5
2015-Apr-27 06:33N 35°59' W 005°27'9 9.3
2015-Apr-27 05:32N 36°02' W 005°16'10211.3
2015-Apr-26 20:31N 36°18' W 003°11'1111.3
2015-Apr-26 19:33N 36°20' W 002°58'1211.9
2015-Apr-26 18:32N 36°22' W 002°43'1212.1
2015-Apr-26 17:33N 36°23' W 002°28'1212.4
2015-Apr-26 16:33N 36°26' W 002°13'1412.1
2015-Apr-26 15:26N 36°28' W 001°56'5911.9
2015-Apr-26 10:27N 36°38' W 000°44'1212.6
2015-Apr-26 09:30N 36°39' W 000°29'1612.2
2015-Apr-26 08:12N 36°42' W 000°09'812.2
2015-Apr-26 07:31N 36°44' E 000°01'1312.3
2015-Apr-26 06:28N 36°46' E 000°17'1111.9
2015-Apr-26 05:32N 36°48' E 000°30'1111.3
2015-Apr-26 04:33N 36°50' E 000°44'1211.7
2015-Apr-26 03:33N 36°52' E 000°58'1211.7
2015-Apr-26 02:32N 36°54' E 001°13'1212.0
2015-Apr-26 01:33N 36°56' E 001°28'1412.2
2015-Apr-26 00:24N 36°58' E 001°45'1212.4
2015-Apr-25 23:25N 37°00' E 001°60'1112.5
2015-Apr-25 22:33N 37°02' E 002°13'1211.8
2015-Apr-25 21:33N 37°04' E 002°28'1212.4
2015-Apr-25 20:33N 37°06' E 002°43'1212.2
2015-Apr-25 19:33N 37°08' E 002°58'1212.0
2015-Apr-25 18:33N 37°10' E 003°13'1312.3
2015-Apr-25 17:29N 37°13' E 003°29'3012.2
2015-Apr-25 15:04N 37°16' E 004°06'10512.3
2015-Apr-25 06:32N 37°26' E 006°17'3912.3
2015-Apr-25 03:25N 37°30' E 007°06'29612.2
2015-Apr-24 03:12N 36°57' E 013°15'1412.1
2015-Apr-24 02:03N 36°53' E 013°31'611.9
2015-Apr-24 01:32N 36°51' E 013°39'1212.4
2015-Apr-24 00:34N 36°48' E 013°53'1212.3
2015-Apr-23 23:34N 36°45' E 014°08'1212.5
2015-Apr-23 22:34N 36°41' E 014°23'2612.7
2015-Apr-23 20:32N 36°34' E 014°54'44811.4
2015-Apr-22 05:09N 37°34' E 024°10'1112.3
2015-Apr-22 04:15N 37°43' E 024°17'  
2015-Apr-18 00:22N 37°32' E 025°48'1113.1
2015-Apr-17 23:32N 37°23' E 025°56'  
Track history (hours):
 
Tides and Currents Weather Stations Pressure Air Temp Water Temp Dewpoint Dewpoint Depression Visibility Wind Speed Wind Dir Waves Ship Positions

Arklow Mill

Last reported at 2015-Apr-27 20:13 UTC. Time now 2015-Apr-28 02:09 UTC.
Position N 36°36' W 008°38'.

Length 137 m; draft 8.4 m.

Type: Ship. MMSI: 250002022.

Date/timePositionNaut miles runAvg speedWind from/ knotsBaromVisibWave heightAir tempDewpointWater temp
2015-Apr-27 20:13N 36°36' W 008°38'811.9
2015-Apr-27 19:32N 36°34' W 008°29'2512.0
2015-Apr-27 17:29N 36°26' W 007°59'12611.5
2015-Apr-27 06:33N 35°59' W 005°27'9 9.3
2015-Apr-27 05:32N 36°02' W 005°16'10211.3
2015-Apr-26 20:31N 36°18' W 003°11'1111.3
2015-Apr-26 19:33N 36°20' W 002°58'1211.9
2015-Apr-26 18:32N 36°22' W 002°43'1212.1
2015-Apr-26 17:33N 36°23' W 002°28'1212.4
2015-Apr-26 16:33N 36°26' W 002°13'1412.1
2015-Apr-26 15:26N 36°28' W 001°56'5911.9
2015-Apr-26 10:27N 36°38' W 000°44'1212.6
2015-Apr-26 09:30N 36°39' W 000°29'1612.2
2015-Apr-26 08:12N 36°42' W 000°09'812.2
2015-Apr-26 07:31N 36°44' E 000°01'1312.3
2015-Apr-26 06:28N 36°46' E 000°17'1111.9
2015-Apr-26 05:32N 36°48' E 000°30'1111.3
2015-Apr-26 04:33N 36°50' E 000°44'1211.7
2015-Apr-26 03:33N 36°52' E 000°58'1211.7
2015-Apr-26 02:32N 36°54' E 001°13'1212.0
2015-Apr-26 01:33N 36°56' E 001°28'1412.2
2015-Apr-26 00:24N 36°58' E 001°45'1212.4
2015-Apr-25 23:25N 37°00' E 001°60'1112.5
2015-Apr-25 22:33N 37°02' E 002°13'1211.8
2015-Apr-25 21:33N 37°04' E 002°28'1212.4
2015-Apr-25 20:33N 37°06' E 002°43'1212.2
2015-Apr-25 19:33N 37°08' E 002°58'1212.0
2015-Apr-25 18:33N 37°10' E 003°13'1312.3
2015-Apr-25 17:29N 37°13' E 003°29'3012.2
2015-Apr-25 15:04N 37°16' E 004°06'10512.3
2015-Apr-25 06:32N 37°26' E 006°17'3912.3
2015-Apr-25 03:25N 37°30' E 007°06'29612.2
2015-Apr-24 03:12N 36°57' E 013°15'1412.1
2015-Apr-24 02:03N 36°53' E 013°31'611.9
2015-Apr-24 01:32N 36°51' E 013°39'1212.4
2015-Apr-24 00:34N 36°48' E 013°53'1212.3
2015-Apr-23 23:34N 36°45' E 014°08'1212.5
2015-Apr-23 22:34N 36°41' E 014°23'2612.7
2015-Apr-23 20:32N 36°34' E 014°54'44811.4
2015-Apr-22 05:09N 37°34' E 024°10'1112.3
2015-Apr-22 04:15N 37°43' E 024°17'  
2015-Apr-18 00:22N 37°32' E 025°48'1113.1
2015-Apr-17 23:32N 37°23' E 025°56'  

Dump ship's entire track history